Time;durP1;ratioP1;P1;durP2;ratioP2;P2;SDS_P1;SDS_P2;PMS_P1;PMS_P2;Temp;Humidity;BMP_temperature;BMP_pressure;BME280_temperature;BME280_humidity;BME280_pressure;Samples;Min_cycle;Max_cycle;Signal;HPM_P1;HPM_P2
2022/09/07 00:01:39;;;;;;;;;;;;;;;22.84;28.82;100999.13;5010150;28;19926;-70
2022/09/07 00:04:08;;;;;;;;;;;;;;;22.75;28.79;100993.97;5019513;28;19921;-70
2022/09/07 00:06:36;;;;;;;;;;;;;;;22.64;29.23;100996.31;5026411;28;19928;-69
2022/09/07 00:09:04;;;;;;;;;;;;;;;22.55;29.02;101008.72;5026380;28;19921;-70
2022/09/07 00:11:32;;;;;;;;;;;;;;;22.46;29.59;100998.78;5025445;28;20308;-71
2022/09/07 00:14:01;;;;;;;;;;;;;;;22.38;29.71;101006.47;5017943;28;20008;-72
2022/09/07 00:16:30;;;;;;;;;;;;;;;22.30;29.91;101012.25;5004959;28;19984;-74
2022/09/07 00:19:00;;;;;;;;;;;;;;;22.20;29.99;101010.69;5015389;28;19933;-73
2022/09/07 00:21:28;;;;;;;;;;;;;;;22.12;30.29;101023.94;5008753;28;19925;-70
2022/09/07 00:23:56;;;;;;;;;;;;;;;22.05;30.08;101017.47;5022348;28;19921;-69
2022/09/07 00:26:25;;;;;;;;;;;;;;;21.97;30.74;101023.22;5029585;28;19928;-69
2022/09/07 00:28:56;;;;;;;;;;;;;;;21.87;32.44;101010.47;5028784;28;20381;-68
2022/09/07 00:31:25;;;;;;;;;;;;;;;21.80;33.69;101005.94;5029702;28;20394;-68
2022/09/07 00:33:54;;;;;;;;;;;;;;;21.70;35.48;101006.28;5028954;28;19921;-70
2022/09/07 00:36:22;;;;;;;;;;;;;;;21.63;32.63;100998.97;5029930;28;19925;-71
2022/09/07 00:38:50;;;;;;;;;;;;;;;21.53;34.63;100993.75;5029017;28;20015;-73
2022/09/07 00:41:18;;;;;;;;;;;;;;;21.43;33.23;100977.41;5008399;28;19948;-73
2022/09/07 00:43:47;;;;;;;;;;;;;;;21.33;33.87;100971.34;5012501;28;19927;-72
2022/09/07 00:46:16;;;;;;;;;;;;;;;21.24;33.14;100957.72;5018146;28;19927;-72
2022/09/07 00:48:49;;;;;;;;;;;;;;;21.12;33.79;100958.28;5024825;28;19928;-72
2022/09/07 00:51:35;;;;;;;;;;;;;;;21.03;33.45;100931.66;5067584;22;19932;-81
2022/09/07 00:54:07;;;;;;;;;;;;;;;20.92;34.18;100923.00;5058364;28;19921;-82
2022/09/07 00:56:37;;;;;;;;;;;;;;;20.83;34.87;100916.72;5040150;28;19921;-82
2022/09/07 00:59:05;;;;;;;;;;;;;;;20.74;34.89;100918.78;5039455;28;19921;-83
2022/09/07 01:01:34;;;;;;;;;;;;;;;20.66;34.96;100904.16;5034195;28;19928;-83
2022/09/07 01:04:06;;;;;;;;;;;;;;;20.58;35.01;100899.56;5026995;28;20003;-82
2022/09/07 01:06:36;;;;;;;;;;;;;;;20.52;34.27;100896.72;5031174;28;19921;-83
2022/09/07 01:09:09;;;;;;;;;;;;;;;20.45;35.05;100902.19;5020035;28;19922;-83
2022/09/07 01:11:38;;;;;;;;;;;;;;;20.39;35.40;100906.63;5036342;28;19924;-82
2022/09/07 01:14:08;;;;;;;;;;;;;;;20.35;34.31;100902.53;5027647;28;19989;-83
2022/09/07 01:16:43;;;;;;;;;;;;;;;20.29;34.89;100892.19;5030286;28;20015;-84
2022/09/07 01:19:26;;;;;;;;;;;;;;;20.27;34.35;100883.22;5019761;28;19921;-85
2022/09/07 01:22:03;;;;;;;;;;;;;;;20.25;35.47;100876.13;5018547;28;19931;-82
2022/09/07 01:24:40;;;;;;;;;;;;;;;20.21;35.80;100853.41;5024363;28;19948;-82
2022/09/07 01:27:35;;;;;;;;;;;;;;;20.19;36.40;100852.78;5026853;28;19933;-83
2022/09/07 01:30:07;;;;;;;;;;;;;;;20.16;35.84;100850.38;5054973;28;20007;-82
2022/09/07 01:32:43;;;;;;;;;;;;;;;20.14;35.93;100849.72;5077417;28;20028;-82
2022/09/07 01:35:14;;;;;;;;;;;;;;;20.12;35.53;100848.19;5051195;28;19960;-82
2022/09/07 01:37:49;;;;;;;;;;;;;;;20.09;35.85;100848.59;5042768;28;19921;-83
2022/09/07 01:40:30;;;;;;;;;;;;;;;20.07;36.14;100843.22;5045318;28;19921;-83
2022/09/07 01:43:00;;;;;;;;;;;;;;;20.04;36.21;100838.03;5051695;28;20388;-83
2022/09/07 01:45:31;;;;;;;;;;;;;;;20.02;37.15;100841.03;5033725;28;19929;-82
2022/09/07 01:48:02;;;;;;;;;;;;;;;20.00;36.56;100848.72;5053156;28;19921;-82
2022/09/07 01:50:33;;;;;;;;;;;;;;;19.97;35.85;100849.09;5039170;28;19927;-81
2022/09/07 01:53:03;;;;;;;;;;;;;;;19.96;35.79;100852.06;5030886;28;20170;-83
2022/09/07 01:55:35;;;;;;;;;;;;;;;19.94;36.80;100845.88;5035854;28;19928;-82
2022/09/07 01:58:08;;;;;;;;;;;;;;;19.91;36.77;100854.56;5031818;28;20448;-83
2022/09/07 02:00:38;;;;;;;;;;;;;;;19.91;36.42;100857.34;5036468;28;19971;-83
2022/09/07 02:03:10;;;;;;;;;;;;;;;19.90;35.83;100850.03;5031107;28;20033;-84
2022/09/07 02:05:42;;;;;;;;;;;;;;;19.88;36.48;100830.78;5044937;28;19928;-82
2022/09/07 02:08:14;;;;;;;;;;;;;;;19.87;36.28;100840.16;5024303;28;19943;-83
2022/09/07 02:10:49;;;;;;;;;;;;;;;19.87;35.94;100840.16;5049648;28;19978;-83
2022/09/07 02:13:20;;;;;;;;;;;;;;;19.88;36.14;100841.03;5023468;28;20388;-83
2022/09/07 02:16:13;;;;;;;;;;;;;;;19.89;36.17;100839.97;5029720;28;20307;-83
2022/09/07 02:18:45;;;;;;;;;;;;;;;19.89;36.33;100828.88;5044771;28;20371;-83
2022/09/07 02:21:15;;;;;;;;;;;;;;;19.89;36.40;100829.72;5029790;28;19933;-82
2022/09/07 02:23:46;;;;;;;;;;;;;;;19.91;36.60;100837.91;5017466;28;20020;-82
2022/09/07 02:26:17;;;;;;;;;;;;;;;19.91;36.46;100832.34;5024419;28;20019;-82
2022/09/07 02:28:45;;;;;;;;;;;;;;;19.92;36.50;100828.53;5024358;28;19929;-83
2022/09/07 02:31:15;;;;;;;;;;;;;;;19.92;36.81;100828.53;5025970;28;19929;-83
2022/09/07 02:33:46;;;;;;;;;;;;;;;19.94;36.38;100818.09;5017040;28;20280;-83
2022/09/07 02:36:16;;;;;;;;;;;;;;;19.94;36.53;100826.41;5024299;28;19929;-83
2022/09/07 02:39:07;;;;;;;;;;;;;;;;;;;;;
2022/09/07 02:42:03;;;;;;;;;;;;;;;19.95;36.63;100812.31;5017283;28;20035;-82
2022/09/07 02:48:27;;;;;;;;;;;;;;;19.96;36.74;100810.38;5035844;28;20000;-82
2022/09/07 02:51:01;;;;;;;;;;;;;;;19.96;36.98;100793.72;5024664;28;19921;-83
2022/09/07 02:53:43;;;;;;;;;;;;;;;19.96;36.90;100788.16;5023418;28;19929;-83
2022/09/07 02:56:27;;;;;;;;;;;;;;;19.96;36.75;100797.38;5026856;28;19929;-83
2022/09/07 02:59:00;;;;;;;;;;;;;;;19.96;36.61;100802.91;5041960;28;19976;-84
2022/09/07 03:01:33;;;;;;;;;;;;;;;19.95;36.87;100800.38;5044047;28;20346;-83
2022/09/07 03:04:25;;;;;;;;;;;;;;;19.95;36.69;100800.38;5017521;28;19927;-83
2022/09/07 03:07:08;;;;;;;;;;;;;;;19.95;36.67;100801.19;5022050;28;19921;-83
2022/09/07 03:09:39;;;;;;;;;;;;;;;19.94;37.40;100796.72;5023505;28;19965;-83
2022/09/07 03:12:07;;;;;;;;;;;;;;;19.93;36.92;100794.13;5021596;28;19928;-83
2022/09/07 03:14:39;;;;;;;;;;;;;;;19.92;37.01;100792.41;5021636;28;19975;-83
2022/09/07 03:17:26;;;;;;;;;;;;;;;19.91;36.76;100793.47;5037764;28;20456;-83
2022/09/07 03:19:55;;;;;;;;;;;;;;;19.90;36.94;100800.03;5020665;28;19995;-83
2022/09/07 03:22:24;;;;;;;;;;;;;;;19.89;37.23;100793.63;5025746;28;19948;-83
2022/09/07 03:25:03;;;;;;;;;;;;;;;19.87;37.15;100804.06;5027369;28;19931;-83
2022/09/07 03:27:32;;;;;;;;;;;;;;;19.86;37.42;100805.16;5034203;28;20016;-82
2022/09/07 03:30:00;;;;;;;;;;;;;;;19.85;37.24;100800.66;5029402;28;19995;-82
2022/09/07 03:32:34;;;;;;;;;;;;;;;19.84;37.04;100803.63;5024816;28;19934;-81
2022/09/07 03:35:31;;;;;;;;;;;;;;;19.81;37.62;100809.56;5050699;28;19932;-81
2022/09/07 03:37:58;;;;;;;;;;;;;;;19.79;37.22;100804.19;5051960;28;19927;-82
2022/09/07 03:40:26;;;;;;;;;;;;;;;19.78;37.23;100799.72;5043775;28;19977;-83
2022/09/07 03:42:54;;;;;;;;;;;;;;;19.77;37.24;100803.56;5048450;28;20016;-82
2022/09/07 03:45:23;;;;;;;;;;;;;;;19.76;37.26;100799.03;5042735;28;19964;-81
2022/09/07 03:47:58;;;;;;;;;;;;;;;19.75;37.17;100810.34;5035923;28;19936;-83
2022/09/07 03:50:27;;;;;;;;;;;;;;;19.74;37.80;100806.72;5066184;28;19920;-82
2022/09/07 03:52:59;;;;;;;;;;;;;;;19.73;37.86;100806.91;5034620;28;19973;-83
2022/09/07 03:55:30;;;;;;;;;;;;;;;19.70;37.64;100796.19;5045238;28;20045;-84
2022/09/07 03:57:58;;;;;;;;;;;;;;;19.69;37.53;100802.81;5034980;28;19932;-82
2022/09/07 04:00:27;;;;;;;;;;;;;;;19.67;38.00;100797.44;5029829;28;20008;-84
2022/09/07 04:03:18;;;;;;;;;;;;;;;19.65;37.72;100794.00;5048001;28;19929;-83
2022/09/07 04:11:33;;;;;;;;;;;;;;;19.60;37.89;100797.38;5039873;28;20406;-82
2022/09/07 04:14:14;;;;;;;;;;;;;;;19.60;37.99;100788.19;5024060;28;19921;-82
2022/09/07 04:19:55;;;;;;;;;;;;;;;19.57;37.88;100796.88;5019982;28;19996;-83
2022/09/07 04:22:30;;;;;;;;;;;;;;;19.56;38.40;100795.16;5024028;28;19952;-84
2022/09/07 04:25:00;;;;;;;;;;;;;;;19.54;38.11;100792.56;5048217;28;20012;-83
2022/09/07 04:27:27;;;;;;;;;;;;;;;19.52;38.48;100797.47;5031737;28;19920;-83
2022/09/07 04:29:56;;;;;;;;;;;;;;;19.51;38.39;100798.53;5031539;28;19970;-84
2022/09/07 04:32:27;;;;;;;;;;;;;;;19.50;38.55;100787.63;5028335;28;19927;-82
2022/09/07 04:34:55;;;;;;;;;;;;;;;19.49;38.42;100777.56;5066659;28;19924;-79
2022/09/07 04:37:23;;;;;;;;;;;;;;;19.47;38.60;100782.44;5049589;28;19960;-75
2022/09/07 04:39:51;;;;;;;;;;;;;;;19.45;38.64;100788.22;5027476;28;19925;-75
2022/09/07 04:42:20;;;;;;;;;;;;;;;19.44;38.63;100786.50;5024298;28;20024;-75
2022/09/07 04:44:48;;;;;;;;;;;;;;;19.43;38.57;100787.53;5017724;28;19928;-76
2022/09/07 04:47:16;;;;;;;;;;;;;;;19.42;38.62;100788.59;5024430;28;19921;-76
2022/09/07 04:49:44;;;;;;;;;;;;;;;19.42;38.88;100779.41;5038614;28;19975;-76
2022/09/07 04:52:12;;;;;;;;;;;;;;;19.41;38.67;100772.13;5024123;28;20299;-76
2022/09/07 04:54:48;;;;;;;;;;;;;;;19.39;38.88;100777.00;5014912;28;19943;-76
2022/09/07 04:57:17;;;;;;;;;;;;;;;19.40;38.61;100781.50;5026507;28;19921;-76
2022/09/07 04:59:46;;;;;;;;;;;;;;;19.39;38.95;100785.34;5027283;28;19921;-76
2022/09/07 05:02:13;;;;;;;;;;;;;;;19.38;38.68;100780.88;5025002;28;20288;-77
2022/09/07 05:04:41;;;;;;;;;;;;;;;19.38;39.13;100778.91;5018446;28;20314;-77
2022/09/07 05:07:09;;;;;;;;;;;;;;;19.38;38.56;100783.63;5018942;28;20020;-77
2022/09/07 05:09:37;;;;;;;;;;;;;;;19.37;38.98;100785.56;5023884;28;19921;-78
2022/09/07 05:12:05;;;;;;;;;;;;;;;19.37;38.97;100784.69;5028451;28;19926;-78
2022/09/07 05:14:32;;;;;;;;;;;;;;;19.36;38.69;100786.59;5022635;28;19921;-77
2022/09/07 05:17:03;;;;;;;;;;;;;;;19.35;38.72;100790.44;5025027;28;19993;-76
2022/09/07 05:19:31;;;;;;;;;;;;;;;19.35;39.15;100790.44;5026242;28;19921;-76
2022/09/07 05:21:58;;;;;;;;;;;;;;;19.36;39.01;100783.81;5021230;28;20016;-77
2022/09/07 05:24:26;;;;;;;;;;;;;;;19.36;39.30;100782.97;5022150;28;19921;-77
2022/09/07 05:50:29;;;;;;;;;;;;;;;19.26;39.38;100786.91;4985424;28;19933;-83
2022/09/07 05:52:59;;;;;;;;;;;;;;;19.27;39.71;100783.06;4988589;28;19922;-84
2022/09/07 05:55:27;;;;;;;;;;;;;;;19.30;39.59;100780.94;4970253;28;19926;-84
2022/09/07 05:57:57;;;;;;;;;;;;;;;19.31;40.02;100791.84;4969287;28;20347;-83
2022/09/07 06:00:25;;;;;;;;;;;;;;;19.33;39.96;100797.22;4962134;28;19961;-84
2022/09/07 06:02:53;;;;;;;;;;;;;;;19.35;39.99;100793.19;4974353;28;19981;-84
2022/09/07 06:05:21;;;;;;;;;;;;;;;19.37;40.04;100801.34;4974646;28;19921;-84
2022/09/07 06:07:49;;;;;;;;;;;;;;;19.40;40.35;100809.25;4996063;28;19922;-83
2022/09/07 06:10:18;;;;;;;;;;;;;;;19.42;40.20;100804.38;4969328;28;19925;-83
2022/09/07 06:13:09;;;;;;;;;;;;;;;19.44;40.25;100805.91;4962229;28;19940;-84
2022/09/07 06:15:38;;;;;;;;;;;;;;;19.47;40.44;100812.97;4976236;28;19922;-83
2022/09/07 06:21:12;;;;;;;;;;;;;;;19.55;40.01;100813.72;4918007;29;19923;-84
2022/09/07 06:24:01;;;;;;;;;;;;;;;19.60;40.32;100825.13;4926552;29;19926;-83
2022/09/07 06:26:37;;;;;;;;;;;;;;;19.65;40.31;100819.84;4937548;28;19922;-84
2022/09/07 06:29:31;;;;;;;;;;;;;;;19.71;40.04;100822.91;4949261;28;20384;-83
2022/09/07 06:32:03;;;;;;;;;;;;;;;19.76;40.23;100831.50;4945081;28;20452;-84
2022/09/07 06:35:00;;;;;;;;;;;;;;;19.81;40.03;100837.31;4977922;28;19978;-84
2022/09/07 06:37:28;;;;;;;;;;;;;;;19.84;40.01;100835.03;4975561;28;19925;-83
2022/09/07 06:39:56;;;;;;;;;;;;;;;19.88;40.19;100835.47;5030042;28;19925;-83
2022/09/07 06:42:25;;;;;;;;;;;;;;;19.89;40.16;100834.44;5042093;28;19921;-83
2022/09/07 06:44:54;;;;;;;;;;;;;;;19.90;40.04;100830.59;5020474;28;20431;-84
2022/09/07 06:47:21;;;;;;;;;;;;;;;19.90;40.28;100834.25;5021094;28;20015;-85
2022/09/07 06:49:49;;;;;;;;;;;;;;;19.92;40.42;100842.41;5027191;28;20395;-84
2022/09/07 06:52:20;;;;;;;;;;;;;;;19.94;39.92;100843.09;5034936;22;19925;-81
2022/09/07 06:54:51;;;;;;;;;;;;;;;19.95;41.10;100847.59;5032238;28;19971;-83
2022/09/07 06:57:27;;;;;;;;;;;;;;;19.97;40.33;100851.88;5035153;28;20004;-83
2022/09/07 06:59:55;;;;;;;;;;;;;;;20.00;40.68;100858.97;5033590;28;19921;-83
2022/09/07 07:02:23;;;;;;;;;;;;;;;20.03;40.26;100864.13;5029754;28;19948;-83
2022/09/07 07:04:51;;;;;;;;;;;;;;;20.06;40.27;100865.63;5006948;28;19931;-84
2022/09/07 07:07:19;;;;;;;;;;;;;;;20.07;40.52;100865.44;5011897;28;19921;-83
2022/09/07 07:09:49;;;;;;;;;;;;;;;20.10;40.47;100861.44;5004565;28;19922;-82
2022/09/07 07:12:17;;;;;;;;;;;;;;;20.12;40.40;100867.66;5029820;28;19965;-85
2022/09/07 07:14:45;;;;;;;;;;;;;;;20.14;40.90;100869.16;5019532;28;20295;-82
2022/09/07 07:17:13;;;;;;;;;;;;;;;20.16;40.77;100878.16;5023779;28;19924;-82
2022/09/07 07:19:41;;;;;;;;;;;;;;;20.19;40.82;100875.00;5023738;28;20015;-83
2022/09/07 07:22:09;;;;;;;;;;;;;;;20.21;40.68;100883.13;5035078;28;19921;-82
2022/09/07 07:24:56;;;;;;;;;;;;;;;20.24;40.55;100880.81;5023864;28;19975;-82
2022/09/07 07:27:24;;;;;;;;;;;;;;;20.26;40.71;100883.41;5010838;28;20142;-81
2022/09/07 07:29:54;;;;;;;;;;;;;;;20.28;40.54;100884.91;5011115;28;20001;-84
2022/09/07 07:32:21;;;;;;;;;;;;;;;20.31;40.51;100886.44;5029149;28;20008;-84
2022/09/07 07:34:49;;;;;;;;;;;;;;;20.36;40.47;100887.59;5014446;28;19928;-84
2022/09/07 07:37:17;;;;;;;;;;;;;;;20.42;40.66;100891.47;5021128;28;19928;-84
2022/09/07 07:39:45;;;;;;;;;;;;;;;20.51;40.84;100892.22;5023742;28;19927;-84
2022/09/07 07:42:34;;;;;;;;;;;;;;;20.63;41.03;100896.19;5021931;28;19930;-84
2022/09/07 07:45:03;;;;;;;;;;;;;;;20.76;41.44;100894.41;5015863;28;20371;-84
2022/09/07 07:47:51;;;;;;;;;;;;;;;20.91;41.10;100899.03;5031721;28;19939;-84
2022/09/07 07:50:19;;;;;;;;;;;;;;;21.05;40.91;100898.06;5027137;28;19925;-84
2022/09/07 07:53:04;;;;;;;;;;;;;;;21.18;40.52;100900.09;5028960;28;19925;-85
2022/09/07 07:55:52;;;;;;;;;;;;;;;21.29;40.89;100899.56;5017949;28;19929;-83
2022/09/07 07:58:20;;;;;;;;;;;;;;;21.39;40.95;100905.63;5000277;28;19949;-83
2022/09/07 08:00:49;;;;;;;;;;;;;;;21.49;40.43;100908.91;5009085;28;20359;-84
2022/09/07 08:03:22;;;;;;;;;;;;;;;21.62;40.62;100899.75;5039396;28;19933;-84
2022/09/07 08:05:50;;;;;;;;;;;;;;;21.74;40.57;100896.19;5025684;28;19921;-85
2022/09/07 08:08:18;;;;;;;;;;;;;;;21.86;40.18;100900.09;5027536;28;19970;-84
2022/09/07 08:10:46;;;;;;;;;;;;;;;21.98;40.10;100886.47;5028096;28;19960;-84
2022/09/07 08:13:14;;;;;;;;;;;;;;;22.10;39.45;100886.69;5032638;28;19932;-84
2022/09/07 08:15:45;;;;;;;;;;;;;;;22.17;39.80;100874.53;5022163;28;20048;-84
2022/09/07 08:18:15;;;;;;;;;;;;;;;22.27;39.92;100879.69;5022701;28;19928;-84
2022/09/07 08:20:43;;;;;;;;;;;;;;;22.37;39.88;100880.13;5033252;28;19920;-84
2022/09/07 08:23:11;;;;;;;;;;;;;;;22.46;39.59;100890.03;5032974;28;20012;-84
2022/09/07 08:25:38;;;;;;;;;;;;;;;22.58;39.95;100896.75;5029230;28;19956;-83
2022/09/07 08:28:07;;;;;;;;;;;;;;;22.70;39.97;100899.75;5031982;28;19928;-85
2022/09/07 08:30:38;;;;;;;;;;;;;;;22.82;39.45;100903.63;5027744;28;19933;-86
2022/09/07 08:33:06;;;;;;;;;;;;;;;22.95;39.41;100899.97;5009079;28;19922;-85
2022/09/07 08:35:35;;;;;;;;;;;;;;;23.05;39.30;100894.81;5021500;28;20307;-85
2022/09/07 08:38:03;;;;;;;;;;;;;;;23.13;39.24;100899.31;5014117;28;20183;-85
2022/09/07 08:40:32;;;;;;;;;;;;;;;23.21;39.09;100911.16;5009386;28;19921;-81
2022/09/07 08:43:11;;;;;;;;;;;;;;;23.30;39.00;100917.38;5013901;28;19949;-83
2022/09/07 08:45:42;;;;;;;;;;;;;;;23.38;38.99;100912.41;5019874;28;19931;-85
2022/09/07 08:48:13;;;;;;;;;;;;;;;23.49;38.88;100918.44;5002559;28;19928;-83
2022/09/07 08:50:45;;;;;;;;;;;;;;;23.60;38.60;100931.69;5009160;28;19921;-84
2022/09/07 08:53:14;;;;;;;;;;;;;;;23.70;38.52;100927.38;5012538;28;19929;-84
2022/09/07 08:55:47;;;;;;;;;;;;;;;23.83;38.61;100925.63;5012981;28;19929;-84
2022/09/07 08:58:17;;;;;;;;;;;;;;;23.95;38.46;100921.09;5013510;28;20021;-84
2022/09/07 09:01:11;;;;;;;;;;;;;;;24.07;38.12;100914.56;5021639;28;20016;-83
2022/09/07 09:04:17;;;;;;;;;;;;;;;24.22;38.33;100917.09;5000898;28;20311;-83
2022/09/07 09:06:53;;;;;;;;;;;;;;;24.36;38.05;100913.19;5012878;28;19906;-83
2022/09/07 09:09:25;;;;;;;;;;;;;;;24.49;37.95;100913.09;5010266;28;19929;-84
2022/09/07 09:12:00;;;;;;;;;;;;;;;24.62;37.97;100909.38;5012615;28;20394;-85
2022/09/07 09:14:30;;;;;;;;;;;;;;;24.74;37.68;100910.34;5026591;28;19927;-82
2022/09/07 09:17:07;;;;;;;;;;;;;;;24.87;37.60;100909.38;5034792;28;19928;-81
2022/09/07 09:19:45;;;;;;;;;;;;;;;25.00;37.64;100914.91;5034930;28;20269;-84
2022/09/07 09:22:17;;;;;;;;;;;;;;;25.12;37.31;100915.03;5019756;28;20375;-83
2022/09/07 09:24:46;;;;;;;;;;;;;;;25.24;37.04;100916.84;5051910;28;19925;-84
2022/09/07 09:27:15;;;;;;;;;;;;;;;25.35;37.17;100929.25;5053190;28;19921;-85
2022/09/07 09:29:43;;;;;;;;;;;;;;;25.46;36.92;100936.03;5043200;28;19921;-83
2022/09/07 09:32:36;;;;;;;;;;;;;;;25.55;36.48;100927.13;5030617;28;19921;-84
2022/09/07 09:35:12;;;;;;;;;;;;;;;25.63;36.22;100929.63;5036216;28;19921;-84
2022/09/07 09:37:42;;;;;;;;;;;;;;;25.71;36.66;100928.47;5030946;28;19924;-85
2022/09/07 09:40:20;;;;;;;;;;;;;;;25.78;36.23;100932.06;5031116;28;19921;-86
2022/09/07 09:42:48;;;;;;;;;;;;;;;25.85;35.92;100931.97;5029651;28;19925;-85
2022/09/07 09:45:19;;;;;;;;;;;;;;;25.91;35.71;100940.28;5050575;28;19920;-83
2022/09/07 09:47:49;;;;;;;;;;;;;;;25.97;36.12;100935.69;5052358;28;19943;-83
2022/09/07 09:50:20;;;;;;;;;;;;;;;26.04;35.73;100933.69;5054841;28;20410;-84
2022/09/07 09:53:24;;;;;;;;;;;;;;;26.10;35.56;100932.78;5031995;28;20007;-86
2022/09/07 09:55:53;;;;;;;;;;;;;;;26.18;35.49;100931.59;5033580;28;19928;-85
2022/09/07 09:58:29;;;;;;;;;;;;;;;26.23;35.42;100931.72;5042793;28;19921;-84
2022/09/07 10:01:21;;;;;;;;;;;;;;;26.30;35.31;100938.09;5046145;28;20022;-83
2022/09/07 10:03:52;;;;;;;;;;;;;;;26.36;35.14;100938.03;5035095;28;20410;-84
2022/09/07 10:06:20;;;;;;;;;;;;;;;26.42;35.03;100946.59;5033782;28;20281;-85
2022/09/07 10:08:55;;;;;;;;;;;;;;;26.47;34.94;100944.75;5040335;28;19931;-83
2022/09/07 10:11:37;;;;;;;;;;;;;;;26.52;35.00;100949.69;5047684;28;20380;-83
2022/09/07 10:14:27;;;;;;;;;;;;;;;26.56;34.65;100946.16;5042090;28;20314;-84
2022/09/07 10:16:55;;;;;;;;;;;;;;;26.61;34.80;100945.47;5041269;28;19975;-82
2022/09/07 10:19:25;;;;;;;;;;;;;;;26.63;34.54;100944.13;5030780;28;20291;-84
2022/09/07 10:21:55;;;;;;;;;;;;;;;26.65;34.30;100949.50;5039724;28;19928;-85
2022/09/07 10:24:25;;;;;;;;;;;;;;;26.65;34.36;100941.94;5017370;28;20477;-85
2022/09/07 10:26:53;;;;;;;;;;;;;;;26.65;34.45;100947.56;5043780;28;19952;-83
2022/09/07 10:29:29;;;;;;;;;;;;;;;26.64;33.92;100945.00;5036107;28;19921;-85
2022/09/07 10:32:04;;;;;;;;;;;;;;;26.61;33.70;100940.72;5030568;28;20287;-85
2022/09/07 10:34:36;;;;;;;;;;;;;;;26.57;33.66;100941.41;5019322;28;20366;-84
2022/09/07 10:37:05;;;;;;;;;;;;;;;26.52;33.81;100939.31;5028573;28;19921;-85
2022/09/07 10:39:36;;;;;;;;;;;;;;;26.49;33.98;100947.34;5032042;28;19925;-84
2022/09/07 10:42:09;;;;;;;;;;;;;;;26.46;33.92;100947.84;5032377;28;19928;-84
2022/09/07 10:44:48;;;;;;;;;;;;;;;26.43;33.76;100939.88;5033345;28;19944;-84
2022/09/07 10:47:25;;;;;;;;;;;;;;;26.42;34.14;100935.34;5028270;28;19921;-84
2022/09/07 10:49:55;;;;;;;;;;;;;;;26.41;33.96;100934.50;5050145;28;19944;-83
2022/09/07 10:52:49;;;;;;;;;;;;;;;26.41;33.90;100928.03;5029194;28;19921;-82
2022/09/07 10:55:25;;;;;;;;;;;;;;;26.40;34.13;100924.38;5028983;28;19971;-81
2022/09/07 10:57:58;;;;;;;;;;;;;;;26.40;33.90;100921.56;5061545;28;19929;-86
2022/09/07 11:00:30;;;;;;;;;;;;;;;26.38;33.66;100907.75;5050767;28;19929;-82
2022/09/07 11:03:06;;;;;;;;;;;;;;;26.40;33.78;100918.75;5038619;28;19964;-83
2022/09/07 11:06:05;;;;;;;;;;;;;;;26.39;33.83;100905.81;5039121;28;19928;-84
2022/09/07 11:08:38;;;;;;;;;;;;;;;26.39;33.93;100909.47;5055565;28;20283;-84
2022/09/07 11:11:29;;;;;;;;;;;;;;;26.40;33.79;100907.53;5036200;28;20458;-83
2022/09/07 11:14:20;;;;;;;;;;;;;;;26.41;33.74;100903.63;5036146;28;20044;-85
2022/09/07 11:16:51;;;;;;;;;;;;;;;26.43;34.03;100906.22;5036314;28;20388;-84
2022/09/07 11:19:22;;;;;;;;;;;;;;;26.44;33.56;100910.72;5016238;28;20225;-84
2022/09/07 11:22:18;;;;;;;;;;;;;;;26.43;33.68;100911.81;5019700;28;19948;-84
2022/09/07 11:24:49;;;;;;;;;;;;;;;26.41;33.55;100905.56;5031903;28;19968;-84
2022/09/07 11:27:42;;;;;;;;;;;;;;;26.39;33.62;100905.81;5022240;28;19921;-84
2022/09/07 11:30:17;;;;;;;;;;;;;;;26.35;33.48;100899.84;5026283;28;20012;-84
2022/09/07 11:32:51;;;;;;;;;;;;;;;26.32;33.24;100900.31;5041241;28;19936;-86
2022/09/07 11:35:20;;;;;;;;;;;;;;;26.29;33.39;100895.19;5036446;28;19928;-83
2022/09/07 11:37:54;;;;;;;;;;;;;;;26.26;33.39;100894.78;5034408;28;19929;-84
2022/09/07 11:40:25;;;;;;;;;;;;;;;26.23;33.72;100893.31;5042263;28;19925;-83
2022/09/07 11:42:58;;;;;;;;;;;;;;;26.21;33.40;100884.28;5055729;28;19932;-84
2022/09/07 11:45:30;;;;;;;;;;;;;;;26.21;33.58;100892.72;5028824;28;19931;-83
2022/09/07 11:48:01;;;;;;;;;;;;;;;26.21;33.62;100892.72;5051231;28;19920;-84
2022/09/07 11:50:32;;;;;;;;;;;;;;;26.22;33.57;100885.13;5053229;28;19935;-84
2022/09/07 11:53:04;;;;;;;;;;;;;;;26.22;33.49;100888.78;5035945;28;19929;-84
2022/09/07 11:55:35;;;;;;;;;;;;;;;26.22;33.39;100891.59;5042964;28;19921;-83
2022/09/07 11:58:20;;;;;;;;;;;;;;;26.22;33.33;100887.94;5040616;28;19929;-83
2022/09/07 12:00:52;;;;;;;;;;;;;;;26.21;33.35;100891.84;5034424;28;19921;-84
2022/09/07 12:03:30;;;;;;;;;;;;;;;26.21;33.13;100880.63;5031746;28;19925;-84
2022/09/07 12:06:19;;;;;;;;;;;;;;;26.21;33.18;100875.88;5035223;28;20383;-84
2022/09/07 12:08:57;;;;;;;;;;;;;;;26.19;33.20;100875.25;5033054;28;19920;-84
2022/09/07 12:11:32;;;;;;;;;;;;;;;26.20;33.39;100874.16;5054146;28;19971;-85
2022/09/07 12:14:09;;;;;;;;;;;;;;;26.18;33.17;100879.16;5041572;28;19921;-84
2022/09/07 12:16:45;;;;;;;;;;;;;;;26.17;33.09;100874.63;5025964;28;19921;-84
2022/09/07 12:19:18;;;;;;;;;;;;;;;26.16;33.13;100860.84;5029850;28;19928;-84
2022/09/07 12:21:49;;;;;;;;;;;;;;;26.15;32.94;100868.38;5032524;28;19925;-84
2022/09/07 12:24:38;;;;;;;;;;;;;;;26.17;33.32;100874.63;5022951;28;19925;-84
2022/09/07 12:27:09;;;;;;;;;;;;;;;26.18;32.98;100872.69;5030804;28;19928;-84
2022/09/07 12:29:38;;;;;;;;;;;;;;;26.18;32.96;100865.13;5028506;28;19975;-84
2022/09/07 12:32:12;;;;;;;;;;;;;;;26.21;33.10;100867.47;5038848;28;19963;-84
2022/09/07 12:35:00;;;;;;;;;;;;;;;26.24;33.12;100864.16;5034847;28;20414;-83
2022/09/07 12:37:45;;;;;;;;;;;;;;;26.28;33.10;100862.59;5044520;28;20379;-84
2022/09/07 12:40:32;;;;;;;;;;;;;;;26.31;32.94;100867.72;5040835;28;19921;-84
2022/09/07 12:43:14;;;;;;;;;;;;;;;26.34;32.81;100860.78;5052756;28;19921;-84
2022/09/07 12:45:51;;;;;;;;;;;;;;;26.36;32.70;100859.47;5034831;28;19990;-83
2022/09/07 12:48:29;;;;;;;;;;;;;;;26.39;32.82;100861.78;5034780;28;19928;-84
2022/09/07 12:51:06;;;;;;;;;;;;;;;26.43;32.55;100862.16;5052939;28;20023;-84
2022/09/07 12:53:35;;;;;;;;;;;;;;;26.43;32.38;100856.56;5018868;28;19921;-85
2022/09/07 12:56:21;;;;;;;;;;;;;;;26.45;32.34;100842.28;5045142;28;20410;-84
2022/09/07 12:58:55;;;;;;;;;;;;;;;26.45;32.09;100837.53;5020700;28;19929;-84
2022/09/07 13:01:33;;;;;;;;;;;;;;;26.45;31.89;100836.66;5046393;28;19921;-84
2022/09/07 13:04:28;;;;;;;;;;;;;;;26.45;31.75;100840.34;5041350;28;19947;-84
2022/09/07 13:07:08;;;;;;;;;;;;;;;26.47;31.81;100840.94;4969961;28;20035;-85
2022/09/07 13:09:38;;;;;;;;;;;;;;;26.47;31.71;100843.72;5042094;28;19986;-85
2022/09/07 13:12:22;;;;;;;;;;;;;;;26.48;31.85;100833.38;5031938;28;20423;-85
2022/09/07 13:15:31;;;;;;;;;;;;;;;26.50;31.82;100834.00;5036140;28;20010;-84
2022/09/07 13:18:02;;;;;;;;;;;;;;;26.52;31.70;100831.81;5018855;28;20454;-84
2022/09/07 13:20:31;;;;;;;;;;;;;;;26.54;31.53;100826.81;5038641;28;19925;-83
2022/09/07 13:23:26;;;;;;;;;;;;;;;26.56;31.66;100825.44;5037259;28;19959;-84
2022/09/07 13:25:55;;;;;;;;;;;;;;;26.57;31.69;100826.31;5033807;28;19928;-84
2022/09/07 13:28:36;;;;;;;;;;;;;;;26.59;31.49;100826.94;5048309;28;19925;-84
2022/09/07 13:31:07;;;;;;;;;;;;;;;26.60;31.37;100828.66;5047701;28;19921;-83
2022/09/07 13:33:47;;;;;;;;;;;;;;;26.62;31.21;100823.69;5042546;28;19940;-82
2022/09/07 13:36:18;;;;;;;;;;;;;;;26.63;31.27;100823.41;5034025;28;20025;-84
2022/09/07 13:38:46;;;;;;;;;;;;;;;26.65;31.22;100824.03;5045378;28;19951;-83
2022/09/07 13:41:16;;;;;;;;;;;;;;;26.68;31.30;100829.19;5048194;28;19952;-83
2022/09/07 13:43:46;;;;;;;;;;;;;;;26.69;30.96;100830.91;5053751;28;19927;-84
2022/09/07 13:46:17;;;;;;;;;;;;;;;26.70;30.90;100827.00;5045818;28;19924;-83
2022/09/07 13:48:49;;;;;;;;;;;;;;;26.71;30.71;100819.41;5031230;28;19921;-83
2022/09/07 13:51:20;;;;;;;;;;;;;;;26.73;30.48;100817.22;5045783;28;20379;-83